Date,TemperatureHighF,TemperatureAvgF,TemperatureLowF,DewpointHighF,DewpointAvgF,DewpointLowF,HumidityHigh,HumidityAvg,HumidityLow,PressureMaxIn,PressureMinIn,WindSpeedMaxMPH,WindSpeedAvgMPH,GustSpeedMaxMPH,PrecipitationSumIn
2013-1-1,19.4,10.4,-5.0,14.6,5.4,-9.4,89,80,70,30.24,30.00,18,7,23,0.00
2013-1-2,29.7,20.0,9.5,24.8,16.1,6.1,88,84,77,30.13,29.92,20,8,27,0.00
2013-1-3,20.3,11.9,4.9,13.6,6.8,0.4,82,79,71,30.29,30.11,18,11,25,0.00
2013-1-4,26.6,20.4,14.2,17.1,12.2,7.7,78,70,62,30.11,30.04,24,9,30,0.00
2013-1-5,28.4,17.8,11.0,19.4,11.5,5.3,84,76,65,30.07,29.86,25,10,30,0.00
2013-1-6,24.1,15.6,8.8,17.7,9.8,4.3,84,77,69,30.22,29.95,18,9,24,0.00
2013-1-7,34.8,28.5,23.2,26.0,20.9,17.2,80,73,67,29.97,29.88,27,9,30,0.00
2013-1-8,32.7,24.4,13.3,26.5,19.9,10.7,92,82,69,29.98,29.72,19,8,23,0.00
2013-1-9,35.6,30.6,24.8,26.4,23.9,18.4,85,76,61,30.34,29.98,27,10,29,0.00
2013-1-10,35.0,31.8,25.6,31.5,26.1,20.1,93,79,68,30.25,29.67,20,13,25,0.23
2013-1-11,38.3,34.7,28.8,36.7,32.8,25.4,93,92,85,29.68,29.38,27,10,29,0.00
2013-1-12,29.5,12.0,3.8,25.1,4.8,-3.3,86,72,64,30.07,29.48,36,16,41,0.01
2013-1-13,12.2,5.8,1.1,2.5,-1.0,-4.9,79,73,55,30.23,30.03,20,10,25,0.00
2013-1-14,19.3,13.0,5.9,10.1,6.2,1.1,81,74,61,30.36,30.23,18,6,20,0.00
2013-1-15,30.1,21.2,12.4,16.9,12.4,7.1,79,69,46,30.24,29.84,27,10,31,0.00
2013-1-16,37.0,26.0,7.2,31.6,20.0,-2.0,89,78,63,30.24,29.71,23,13,29,0.00
2013-1-17,28.8,17.5,5.0,20.5,8.5,-5.3,83,67,48,30.37,30.20,17,7,23,0.00
2013-1-18,42.4,34.5,23.6,30.0,26.6,18.9,86,73,58,30.21,29.76,23,12,27,0.00
2013-1-19,42.0,29.6,4.0,31.3,21.2,-3.1,82,70,63,30.26,29.73,33,14,41,0.00
2013-1-20,11.0,4.6,-1.3,3.5,-2.7,-9.2,78,71,63,30.38,30.26,22,11,27,0.00
2013-1-21,3.1,-3.2,-9.2,-7.2,-11.7,-17.8,75,66,58,30.34,30.26,24,12,29,0.00
2013-1-22,14.2,4.3,-5.6,6.2,-5.0,-12.2,76,65,51,30.34,30.17,15,6,16,0.00
2013-1-23,16.2,8.1,-5.9,10.2,0.3,-14.4,81,70,57,30.54,30.10,29,13,35,0.00
2013-1-24,13.9,4.1,-6.3,4.6,-7.5,-14.6,68,58,46,30.57,30.09,25,13,30,0.00
2013-1-25,22.7,13.1,2.0,15.7,3.5,-3.9,77,65,46,30.26,29.98,29,13,33,0.00
2013-1-26,27.0,14.0,0.0,13.5,3.7,-5.2,80,64,49,30.28,30.01,24,11,28,0.00
2013-1-27,31.9,30.0,25.7,29.9,24.3,13.2,92,80,56,30.02,29.77,21,12,26,0.76
2013-1-28,31.9,30.7,28.8,30.2,28.9,27.0,93,93,91,29.87,29.58,34,17,64,0.00
2013-1-29,31.9,27.8,21.2,30.2,25.5,18.2,93,91,87,29.76,29.54,19,11,19,0.14
2013-1-30,21.8,13.2,2.7,18.5,8.1,-3.3,87,79,74,29.84,29.68,14,14,14,1.20
2013-1-31,2.7,-4.0,-8.5,-3.1,-11.0,-16.2,76,70,64,30.29,29.83,68,30,74,3.27
2013-2-1,17.5,3.9,-8.6,11.0,-3.7,-16.0,80,70,58,30.29,29.97,56,48,56,0.00
2013-2-2,28.8,12.8,2.0,24.6,7.7,-2.7,90,79,68,30.14,29.91,30,8,37,0.00
2013-2-3,21.1,15.5,8.3,14.5,9.4,3.5,87,76,62,30.08,29.85,27,8,31,0.00
2013-2-4,22.5,13.5,5.2,17.3,8.1,1.7,86,78,65,30.03,29.75,23,8,25,0.00
2013-2-5,32.5,23.8,12.6,28.6,18.9,7.7,87,81,72,30.07,29.68,22,9,24,0.00
2013-2-6,41.5,28.5,10.8,32.1,22.7,6.5,85,78,65,30.06,29.83,25,8,33,0.00
2013-2-7,35.6,24.0,20.9,30.9,21.1,18.3,91,88,80,30.24,29.92,22,11,26,0.00
2013-2-8,27.7,23.9,21.6,21.8,18.7,15.6,87,80,74,30.31,30.13,30,11,32,0.00
2013-2-9,33.9,28.4,23.8,29.0,24.9,21.0,90,86,81,30.15,29.81,32,17,37,0.00
2013-2-10,35.0,31.2,26.1,33.3,29.0,22.9,93,91,86,29.81,29.24,27,12,32,0.90
2013-2-11,26.3,22.1,18.5,23.1,16.7,11.8,89,79,71,30.06,29.48,32,17,38,0.00
2013-2-12,34.5,25.8,18.9,25.8,19.1,12.9,85,75,63,30.06,29.83,19,8,21,0.00
2013-2-13,39.3,31.9,22.1,31.3,25.4,17.5,84,77,64,29.83,29.61,25,9,30,0.00
2013-2-14,32.0,24.1,9.9,27.6,19.0,3.1,89,80,68,30.21,29.65,25,13,31,0.00
2013-2-15,16.7,11.4,6.7,9.0,5.6,1.3,84,77,66,30.30,30.21,18,8,20,0.00
2013-2-16,25.0,15.5,5.2,17.9,10.7,1.5,88,81,68,30.25,30.02,11,5,13,0.00
2013-2-17,35.7,27.6,18.4,28.6,21.8,14.5,86,78,71,30.03,29.56,30,16,34,0.00
2013-2-18,35.7,22.1,2.0,29.9,16.2,-3.8,86,77,68,29.93,29.54,36,18,43,0.00
2013-2-19,3.6,-1.2,-5.9,-3.8,-7.6,-11.7,79,73,67,30.36,29.92,34,19,40,0.00
2013-2-20,14.4,3.1,-8.1,6.7,-3.5,-13.3,79,73,62,30.40,30.30,18,7,19,0.00
2013-2-21,22.7,14.3,6.7,12.5,7.6,2.3,86,74,59,30.33,29.97,21,10,25,0.00
2013-2-22,22.7,18.3,13.7,16.7,14.2,10.2,88,84,74,29.97,29.87,16,9,20,0.00
2013-2-23,23.2,14.2,3.8,13.1,8.1,-0.5,90,77,55,29.92,29.85,12,5,14,0.00
2013-2-24,23.2,14.0,2.3,19.7,10.1,-1.7,88,84,80,30.07,29.92,8,2,9,0.01
2013-2-25,25.2,22.5,20.7,21.4,19.7,18.0,91,89,84,30.09,29.99,10,4,13,0.00
2013-2-26,26.8,22.8,19.1,23.1,19.7,16.4,90,87,82,30.02,29.86,22,9,25,0.00
2013-2-27,29.7,22.4,18.5,22.2,17.2,13.3,89,80,67,30.04,29.87,27,14,31,0.00
2013-2-28,25.9,22.6,17.8,21.4,18.8,14.7,88,85,80,30.19,30.04,16,9,20,0.00
2013-3-1,23.2,19.8,13.3,19.6,14.0,10.0,87,78,66,30.33,30.18,17,9,20,0.00
2013-3-2,25.4,17.2,5.8,19.6,11.3,2.0,89,78,56,30.31,30.08,14,5,16,0.00
2013-3-3,31.0,25.5,19.3,22.7,19.2,15.6,87,77,65,30.09,29.86,22,12,27,0.00
2013-3-4,28.1,25.9,23.6,25.5,23.0,20.4,91,88,86,29.97,29.79,26,11,30,0.29
2013-3-5,28.3,23.9,17.3,25.7,19.9,13.4,91,84,78,30.30,29.92,26,13,30,0.00
2013-3-6,24.7,20.8,18.0,16.8,15.5,14.5,86,79,68,30.39,30.29,19,7,22,0.00
2013-3-7,26.6,19.0,8.6,20.3,14.6,5.2,90,82,70,30.31,30.18,20,10,23,0.00
2013-3-8,34.5,26.1,15.3,30.0,22.1,12.4,89,84,77,30.23,29.99,25,11,30,0.27
2013-3-9,35.2,33.7,31.7,33.3,31.6,29.5,93,92,89,29.99,29.65,24,12,26,1.89
2013-3-10,31.7,27.0,22.3,29.7,23.6,18.7,92,86,80,29.93,29.76,31,19,40,0.03
2013-3-11,27.0,22.8,18.5,20.1,16.9,14.2,86,77,63,29.88,29.80,24,12,28,0.00
2013-3-12,28.8,24.7,19.1,23.8,18.2,13.2,85,75,66,30.23,29.87,31,16,36,0.00
2013-3-13,29.5,22.1,15.1,21.1,15.4,11.2,85,75,59,30.37,30.18,21,8,27,0.00
2013-3-14,41.5,33.3,26.5,33.1,26.9,19.1,90,77,65,30.18,30.00,18,7,23,0.10
2013-3-15,36.8,33.1,31.1,33.3,30.0,27.8,93,88,84,30.00,29.77,13,7,16,0.00
2013-3-16,31.5,21.3,12.8,29.7,16.6,6.0,93,82,67,30.22,29.86,23,12,26,0.00
2013-3-17,30.8,20.3,9.2,26.1,13.2,2.6,82,73,62,30.22,29.73,35,14,41,0.00
2013-3-18,32.3,20.9,11.5,29.2,14.3,3.3,90,75,65,29.94,29.62,38,21,41,0.36
2013-3-19,24.3,14.2,8.5,13.0,4.5,0.6,74,65,48,30.26,29.94,25,13,36,0.00
2013-3-20,20.3,13.5,7.4,6.5,3.3,0.0,76,63,47,30.29,30.12,24,14,36,0.00
2013-3-21,25.9,16.4,5.8,15.2,6.7,0.8,80,66,47,30.13,29.99,14,5,16,0.00
2013-3-22,31.1,22.6,13.1,21.4,14.0,8.9,87,70,52,30.08,30.02,11,4,13,0.00
2013-3-23,30.4,25.3,21.2,20.1,16.6,12.9,87,69,54,30.15,30.04,15,7,19,0.00
2013-3-24,29.2,24.9,20.5,25.4,20.2,15.2,89,82,71,30.11,29.97,21,12,26,0.00
2013-3-25,32.1,26.0,21.6,22.1,19.8,16.6,87,77,59,30.26,30.03,23,13,29,0.00
2013-3-26,36.8,26.3,16.2,25.4,18.0,11.9,85,71,44,30.30,30.23,15,6,21,0.00
2013-3-27,39.9,32.1,23.8,27.3,23.2,19.9,85,70,49,30.30,30.24,15,6,16,0.00
2013-3-28,47.8,37.4,31.0,36.1,29.7,24.0,87,74,57,30.29,30.21,18,9,20,0.00
2013-3-29,54.6,42.7,33.0,41.3,34.9,29.4,88,75,51,30.23,30.01,23,10,26,0.00
2013-3-30,53.4,45.3,33.9,44.3,38.0,31.5,92,76,61,30.01,29.89,22,10,23,0.00
2013-3-31,36.1,31.4,22.0,32.2,23.3,12.7,93,72,44,30.13,29.87,29,15,34,0.00
2013-4-1,32.3,24.6,17.3,18.8,12.9,7.9,78,61,42,30.28,30.13,22,10,31,0.00
2013-4-2,38.1,27.9,20.2,22.1,18.3,16.0,86,68,46,30.32,30.25,14,6,19,0.00
2013-4-3,50.1,36.5,24.1,33.0,25.1,16.9,79,63,48,30.34,30.08,26,12,36,0.00
2013-4-4,48.3,39.9,29.3,29.9,27.3,23.8,81,61,43,30.18,30.03,22,12,28,0.00
2013-4-5,45.6,36.2,26.5,32.7,26.4,21.6,87,68,51,30.19,29.77,28,11,34,0.00
2013-4-6,55.4,44.1,33.6,43.0,35.8,29.7,87,73,60,29.80,29.52,29,14,30,0.06
2013-4-7,48.7,37.5,30.6,42.5,33.4,28.2,92,85,68,29.94,29.70,19,8,23,0.13
2013-4-8,53.6,44.1,39.2,46.9,41.2,36.8,93,89,76,29.97,29.64,24,9,28,0.00
2013-4-9,39.3,34.0,31.3,36.8,31.5,28.4,93,90,87,30.08,29.89,35,18,45,2.43
2013-4-10,32.3,30.6,29.0,30.2,28.1,26.1,92,90,86,30.06,29.81,1,1,1,0.27
2013-4-11,33.6,31.8,30.8,30.5,29.8,28.8,93,92,87,29.82,29.61,18,6,20,0.23
2013-4-12,31.5,29.0,26.1,28.7,25.1,22.2,92,85,74,29.88,29.66,20,11,22,0.00
2013-4-13,35.2,30.4,26.1,27.7,23.8,21.3,85,76,59,29.93,29.84,17,9,23,0.00
2013-4-14,42.2,34.4,31.5,39.2,30.7,26.9,92,86,69,29.84,29.36,24,15,32,0.04
2013-4-15,38.3,34.6,30.2,30.3,26.9,22.6,81,73,63,30.03,29.54,31,16,39,0.00
2013-4-16,39.2,34.2,29.5,30.6,26.5,23.4,86,73,60,30.28,30.01,16,8,19,0.00
2013-4-17,36.8,33.9,32.0,34.0,30.5,28.0,92,87,77,30.26,29.84,21,11,31,1.11
2013-4-18,32.1,30.9,29.3,30.2,28.7,26.7,92,91,89,29.88,29.61,37,17,42,0.42
2013-4-19,31.5,27.9,23.9,26.7,22.2,18.1,90,79,68,30.04,29.64,29,18,34,0.00
2013-4-20,38.4,29.1,18.0,26.7,19.3,13.6,83,67,47,30.24,30.04,14,7,22,0.00
2013-4-21,53.9,41.8,35.2,44.7,34.7,24.1,86,75,57,30.23,30.00,26,12,30,0.02
2013-4-22,36.6,32.8,28.8,33.1,30.1,26.6,92,89,84,30.18,30.07,31,14,41,0.13
2013-4-23,32.0,26.8,20.9,26.4,21.4,17.7,91,80,59,30.20,30.10,24,12,29,0.00
2013-4-24,49.4,35.3,25.9,35.4,26.1,21.1,87,70,44,30.10,29.93,32,12,40,0.12
2013-4-25,56.3,40.3,26.1,36.8,26.7,19.5,77,59,40,30.21,29.98,27,10,34,0.00
2013-4-26,68.7,56.4,45.3,41.2,36.6,32.7,70,49,27,30.15,29.95,26,10,34,0.00
2013-4-27,72.8,58.5,39.9,43.3,35.0,26.4,76,45,19,30.15,29.91,17,6,22,0.00
2013-4-28,81.5,62.6,48.0,50.7,44.5,38.3,82,55,23,29.92,29.67,24,11,31,0.33
2013-4-29,74.4,58.6,42.8,53.4,45.4,35.8,84,63,36,29.84,29.52,18,8,21,0.00
2013-4-30,66.9,61.6,54.8,57.7,41.0,22.9,82,50,19,29.98,29.45,27,11,33,0.00
2013-5-1,55.0,36.2,29.9,36.9,29.9,25.2,91,78,40,30.46,29.96,28,14,31,1.08
2013-5-2,45.5,37.7,32.3,29.2,25.5,21.8,80,62,41,30.53,30.39,31,16,35,0.00
2013-5-3,40.8,34.1,28.1,32.8,26.7,22.1,90,74,53,30.39,30.11,29,14,32,0.00
2013-5-4,39.3,35.5,32.0,37.5,33.2,29.4,93,91,88,30.16,30.06,24,14,30,0.01
2013-5-5,49.6,43.3,38.6,44.7,40.2,36.9,93,89,81,30.16,30.11,16,8,18,0.00
2013-5-6,65.4,53.2,43.3,49.7,44.8,39.9,89,74,53,30.13,30.04,10,5,14,0.00
2013-5-7,74.4,61.5,46.0,50.0,44.4,38.4,90,57,28,30.09,29.97,16,5,21,0.00
2013-5-8,62.0,58.1,54.3,55.0,50.7,45.5,93,77,56,30.00,29.95,17,6,20,0.25
2013-5-9,61.1,54.2,45.8,54.3,50.4,39.9,93,87,69,30.08,29.93,28,12,31,0.26
2013-5-10,64.2,50.9,36.5,43.1,33.3,25.2,78,54,22,30.11,29.95,27,9,30,0.00
2013-5-11,53.9,45.5,38.8,39.6,24.4,14.4,75,46,23,30.21,29.98,32,16,41,0.00
2013-5-12,58.4,46.2,31.1,22.5,18.1,12.4,63,35,17,30.24,30.10,18,7,24,0.00
2013-5-13,84.7,60.0,42.8,46.9,32.3,18.7,47,35,24,30.11,29.73,30,10,35,0.00
2013-5-14,99.3,79.7,55.7,51.1,42.2,27.6,63,30,14,29.79,29.55,30,14,43,0.00
2013-5-15,75.9,65.4,53.9,42.4,39.6,34.2,59,40,26,29.98,29.78,26,7,29,0.00
2013-5-16,83.6,71.0,55.2,58.9,41.8,33.5,85,39,17,29.93,29.80,16,6,27,0.13
2013-5-17,71.9,65.5,60.0,64.7,60.5,57.4,91,84,72,29.92,29.85,22,10,25,0.69
2013-5-18,81.5,71.8,63.3,64.9,59.7,57.4,90,67,45,29.93,29.77,25,11,28,0.00
2013-5-19,72.5,67.6,63.1,64.0,61.3,59.3,92,80,69,29.78,29.56,23,9,30,0.40
2013-5-20,70.5,62.8,58.1,60.5,55.0,50.1,92,76,49,29.59,29.51,20,10,33,0.01
2013-5-21,61.1,57.5,53.4,56.8,49.9,45.9,90,76,57,29.69,29.51,17,6,21,0.00
2013-5-22,54.1,49.2,45.5,51.4,46.0,42.7,92,88,84,29.99,29.68,21,11,25,0.01
2013-5-23,62.6,53.3,42.8,45.5,36.3,26.7,86,56,27,30.31,29.99,22,10,28,0.00
2013-5-24,70.3,56.6,42.8,51.8,39.5,32.1,77,54,30,30.32,30.12,32,12,33,0.27
2013-5-25,58.4,52.7,49.2,50.2,47.6,45.6,90,83,67,30.18,30.11,28,15,30,0.11
2013-5-26,54.3,50.9,48.3,51.4,47.7,45.5,91,88,84,30.15,29.87,31,13,37,1.87
2013-5-27,57.3,54.7,52.3,53.8,52.2,49.5,93,91,86,30.00,29.79,23,9,26,0.38
2013-5-28,66.3,57.7,54.1,57.8,54.5,52.3,93,89,70,29.81,29.70,11,5,16,0.01
2013-5-29,75.5,65.3,52.8,66.7,60.2,50.9,93,84,65,29.80,29.62,24,11,31,0.50
2013-5-30,69.8,65.9,59.7,62.1,60.0,51.5,90,81,68,29.64,29.49,33,14,39,0.32
2013-5-31,72.6,64.7,57.2,53.0,49.5,45.3,80,59,39,29.61,29.54,29,12,38,0.10
2013-6-1,64.9,56.4,50.9,54.5,48.8,41.9,86,75,66,29.99,29.59,27,12,33,0.00
2013-6-2,66.2,56.5,48.3,46.0,37.9,30.8,89,53,27,30.11,29.98,21,7,32,0.00
2013-6-3,71.0,61.4,47.4,44.7,41.1,35.5,76,49,32,30.06,29.90,24,9,29,0.00
2013-6-4,63.8,58.1,54.5,55.4,51.2,44.5,90,78,50,30.04,29.92,28,14,34,1.10
2013-6-5,65.1,58.9,53.4,53.8,49.1,44.3,93,71,50,30.04,29.95,16,7,18,0.00
2013-6-6,59.7,55.7,52.3,51.7,48.6,46.1,91,77,61,30.04,29.96,14,7,17,0.00
2013-6-7,64.7,56.6,51.2,49.1,46.7,43.2,89,71,46,30.07,29.93,8,4,10,0.00
2013-6-8,61.5,56.9,50.9,56.2,51.1,45.9,88,80,71,29.93,29.80,23,10,30,0.95
2013-6-9,69.8,62.9,57.2,61.9,57.8,53.6,92,83,64,29.83,29.67,24,11,30,0.52
2013-6-10,74.8,64.3,57.9,60.1,57.3,54.9,93,79,54,29.91,29.83,13,6,15,0.00
2013-6-11,86.5,72.4,61.1,64.5,60.4,54.9,90,69,34,29.91,29.81,17,7,23,0.00
2013-6-12,70.1,64.7,59.0,66.3,59.9,52.3,91,84,70,30.00,29.70,31,12,37,0.33
2013-6-13,75.9,66.0,54.8,55.1,51.4,47.7,81,61,38,30.13,30.00,16,7,20,0.00
2013-6-14,79.1,69.9,62.6,62.4,57.8,52.5,83,66,49,30.11,29.86,31,14,35,0.04
2013-6-15,77.9,71.6,66.5,65.6,60.4,54.3,90,68,46,29.98,29.88,20,7,24,0.24
2013-6-16,84.3,73.4,60.8,54.9,48.8,40.9,70,45,22,30.00,29.92,18,8,24,0.00
2013-6-17,81.6,72.7,60.8,53.8,50.0,44.8,75,46,28,30.01,29.93,21,9,31,0.00
2013-6-18,76.4,67.7,57.9,56.3,53.8,48.7,88,62,38,30.09,30.00,18,7,27,0.00
2013-6-19,85.2,74.7,61.5,59.5,54.7,48.7,77,52,29,30.05,29.93,21,10,26,0.00
2013-6-20,88.5,78.7,67.1,63.8,61.9,59.5,81,58,41,30.00,29.87,28,15,35,0.00
2013-6-21,85.4,75.0,63.6,69.7,64.6,55.7,91,70,56,29.97,29.82,40,14,45,1.54
2013-6-22,80.2,70.3,61.3,68.4,63.5,58.8,92,79,60,30.08,29.81,40,8,45,3.89
2013-6-23,79.5,73.5,66.7,67.3,63.4,60.2,85,71,53,29.93,29.71,28,10,37,0.21
2013-6-24,75.2,70.4,64.7,68.6,64.4,61.9,92,81,66,29.94,29.81,17,6,19,0.51
2013-6-25,86.7,75.6,66.2,71.2,66.4,59.9,93,75,41,29.84,29.73,22,7,26,0.00
2013-6-26,85.8,77.9,70.7,69.9,64.3,54.9,92,66,35,29.89,29.69,20,7,29,0.00
2013-6-27,84.7,77.2,69.4,62.4,56.7,49.4,75,51,30,29.95,29.87,23,9,29,0.00
2013-6-28,79.5,73.1,65.1,55.7,53.4,50.8,67,51,38,29.93,29.85,30,15,38,0.00
2013-6-29,76.2,68.3,61.5,59.7,54.7,45.8,89,63,36,29.99,29.83,26,13,32,0.02
2013-6-30,76.2,67.0,56.1,52.8,48.6,40.8,80,54,28,30.14,29.99,18,8,23,0.00
2013-7-1,81.5,71.5,59.1,54.7,50.4,43.9,74,49,27,30.21,30.14,13,6,17,0.00
2013-7-2,80.9,72.2,60.6,58.1,52.3,48.3,76,51,33,30.17,30.07,14,5,18,0.00
2013-7-3,81.6,73.0,61.8,56.3,51.9,47.9,81,49,32,30.08,29.97,12,4,14,0.00
2013-7-4,87.0,76.3,63.6,55.8,52.3,46.5,71,46,25,29.98,29.88,20,9,35,0.00
2013-7-5,88.5,77.1,68.7,61.1,56.5,52.4,67,50,33,29.92,29.83,25,12,30,0.00
2013-7-6,90.1,77.9,70.3,64.3,59.6,56.7,64,54,37,29.89,29.81,22,11,28,0.00
2013-7-7,89.7,78.4,69.9,69.9,63.9,61.4,86,62,44,29.94,29.86,30,6,58,1.40
2013-7-8,86.7,74.9,66.0,70.2,65.3,62.0,90,73,44,30.02,29.92,8,4,12,0.00
2013-7-9,85.2,77.4,66.0,69.1,66.2,61.0,86,69,50,30.00,29.79,31,8,46,0.30
2013-7-10,77.5,69.2,59.7,64.6,54.8,48.8,84,62,38,30.11,30.00,19,7,23,0.00
2013-7-11,83.6,72.5,61.7,58.2,54.9,51.1,80,56,34,30.13,29.98,20,8,24,0.00
2013-7-12,87.9,76.5,66.2,62.7,58.2,54.9,68,54,40,30.01,29.91,26,15,36,0.00
2013-7-13,80.2,73.0,67.2,65.2,61.1,58.3,83,66,56,30.06,29.93,24,12,33,0.16
2013-7-14,84.7,74.9,67.1,62.5,59.4,55.6,80,60,37,30.19,30.03,19,10,23,0.01
2013-7-15,86.5,75.7,64.9,68.9,62.1,58.4,84,64,40,30.24,30.16,16,7,22,0.00
2013-7-16,89.9,80.8,71.0,68.4,65.3,62.1,85,61,39,30.25,30.18,17,8,23,0.00
2013-7-17,92.6,82.2,72.3,68.3,65.8,62.7,79,59,39,30.29,30.15,17,7,22,0.00
2013-7-18,90.5,82.8,74.6,67.8,66.3,63.3,77,59,42,30.15,29.86,26,10,30,0.00
2013-7-19,82.0,77.5,68.1,66.6,60.5,51.2,77,56,35,29.95,29.81,21,10,26,0.03
2013-7-20,80.4,71.4,61.7,63.9,59.2,56.3,84,66,47,30.00,29.91,12,5,17,0.00
2013-7-21,83.8,73.7,65.8,65.2,61.8,52.3,88,69,34,29.95,29.81,11,5,14,0.00
2013-7-22,89.0,74.0,63.5,67.9,61.8,43.1,90,67,20,29.92,29.68,26,9,37,0.01
2013-7-23,73.2,64.2,56.8,55.7,53.4,48.5,84,69,47,30.04,29.90,13,6,16,0.01
2013-7-24,77.7,68.0,57.0,56.1,53.0,49.9,83,60,38,30.09,30.01,13,4,16,0.00
2013-7-25,82.5,70.4,61.7,65.5,60.0,54.0,85,70,52,30.03,29.95,16,6,23,0.06
2013-7-26,67.4,62.1,55.2,61.5,51.4,46.8,86,68,50,30.11,29.97,23,11,28,0.00
2013-7-27,66.5,57.8,49.6,48.5,42.7,37.2,83,59,38,30.12,29.99,18,9,26,0.00
2013-7-28,71.2,59.1,46.2,50.4,44.5,41.0,82,60,38,30.08,30.01,17,6,20,0.00
2013-7-29,75.5,64.1,49.6,54.0,48.6,43.9,82,59,36,30.12,30.06,16,6,24,0.00
2013-7-30,72.5,66.8,62.0,62.7,58.8,53.8,90,75,63,30.11,30.06,11,4,13,0.00
2013-7-31,78.2,67.5,57.7,60.8,56.6,50.6,92,70,38,30.14,30.05,12,6,18,0.00
2013-8-1,83.8,70.6,58.2,62.1,55.7,49.1,81,61,38,30.10,29.91,19,6,21,0.00
2013-8-2,71.9,66.8,60.6,58.4,54.1,50.2,81,64,46,30.08,29.91,12,4,16,0.02
2013-8-3,74.6,64.1,52.7,54.5,49.7,44.3,82,61,36,30.21,30.07,15,5,17,0.00
2013-8-4,75.5,65.2,53.0,58.9,51.9,46.2,83,63,42,30.24,30.00,14,5,21,0.03
2013-8-5,81.3,69.8,61.1,66.2,61.9,57.0,91,77,52,30.06,29.86,17,7,26,0.58
2013-8-6,84.2,71.9,59.3,64.4,60.6,56.5,92,70,41,29.90,29.78,16,6,24,0.00
2013-8-7,72.1,65.6,60.9,58.8,54.6,49.1,90,69,44,30.06,29.84,14,7,18,0.00
2013-8-8,72.8,63.8,57.5,63.0,55.8,50.3,88,75,59,30.10,30.00,12,5,19,0.18
2013-8-9,73.9,65.8,57.3,60.3,54.9,50.9,92,70,48,30.16,30.03,14,6,19,0.24
2013-8-10,77.3,64.9,54.3,62.6,55.1,49.1,90,72,47,30.21,30.09,8,3,15,0.16
2013-8-11,72.6,66.1,61.8,62.8,60.5,58.8,91,82,67,30.11,30.03,10,4,17,1.43
2013-8-12,74.6,66.0,58.2,60.3,55.0,50.0,92,69,43,30.10,30.05,14,6,18,0.00
2013-8-13,70.7,62.9,53.7,57.0,51.1,44.8,88,67,40,30.20,30.10,12,5,17,0.00
2013-8-14,72.8,63.1,53.4,56.4,49.5,43.8,85,62,39,30.22,30.12,10,4,14,0.00
2013-8-15,73.2,62.7,52.5,56.8,53.4,49.2,92,73,46,30.17,30.10,12,4,16,0.00
2013-8-16,73.0,63.2,52.3,55.4,53.0,49.7,91,71,48,30.21,30.15,12,4,15,0.00
2013-8-17,77.1,66.2,53.9,56.0,52.9,48.8,83,64,43,30.20,30.12,17,7,23,0.00
2013-8-18,77.7,66.8,52.8,57.1,52.8,48.6,86,63,39,30.15,30.03,17,7,23,0.00
2013-8-19,83.6,73.8,64.0,67.3,62.5,55.4,80,68,54,30.06,29.92,18,8,20,0.00
2013-8-20,84.2,75.7,65.8,72.0,67.4,62.3,88,75,63,29.94,29.89,15,7,20,0.00
2013-8-21,80.4,75.3,71.0,72.0,68.3,65.5,91,79,66,30.02,29.88,16,6,18,0.00
2013-8-22,79.1,72.5,64.5,69.8,62.8,54.9,93,72,55,30.13,30.02,22,6,22,0.40
2013-8-23,81.3,71.9,62.0,69.7,64.7,58.5,91,78,60,30.13,30.03,19,7,21,0.00
2013-8-24,84.0,76.3,70.3,71.6,67.9,65.7,87,75,62,30.07,29.97,24,12,32,0.06
2013-8-25,89.2,81.2,74.8,73.2,70.2,67.5,79,69,55,30.06,29.98,20,10,24,0.00
2013-8-26,89.7,82.4,75.9,74.3,70.5,67.0,79,68,54,30.02,29.89,19,9,22,0.00
2013-8-27,89.2,81.2,75.5,72.8,67.6,64.9,74,63,53,29.90,29.83,26,9,29,0.00